createdAt,value
2022-10-20T00:01:10.226Z,2.50
2022-10-20T00:03:38.874Z,2.30
2022-10-20T00:06:11.740Z,2.20
2022-10-20T00:08:40.431Z,2.00
2022-10-20T00:11:12.088Z,1.90
2022-10-20T00:13:41.725Z,1.80
2022-10-20T00:16:10.566Z,1.70
2022-10-20T00:18:38.753Z,1.60
2022-10-20T00:21:08.946Z,1.50
2022-10-20T00:23:37.455Z,1.40
2022-10-20T00:26:07.148Z,1.40
2022-10-20T00:28:36.729Z,1.30
2022-10-20T00:31:06.284Z,1.20
2022-10-20T00:33:34.969Z,1.10
2022-10-20T00:36:05.134Z,1.00
2022-10-20T00:38:33.657Z,1.00
2022-10-20T00:41:03.197Z,0.90
2022-10-20T00:43:45.659Z,0.90
2022-10-20T00:46:15.296Z,0.80
2022-10-20T00:48:46.649Z,0.70
2022-10-20T00:51:17.833Z,0.70
2022-10-20T00:53:46.879Z,0.60
2022-10-20T00:56:15.912Z,0.60
2022-10-20T00:58:45.679Z,0.50
2022-10-20T01:01:15.857Z,0.40
2022-10-20T01:03:46.768Z,0.30
2022-10-20T01:08:49.274Z,0.30
2022-10-20T01:11:23.827Z,0.20
2022-10-20T01:14:09.976Z,0.20
2022-10-20T01:16:46.557Z,0.10
2022-10-20T01:19:49.348Z,0.10
2022-10-20T01:22:38.401Z,0.00
2022-10-20T01:25:17.996Z,-0.10
2022-10-20T01:27:50.303Z,-0.10
2022-10-20T01:30:21.038Z,-0.20
2022-10-20T01:33:02.804Z,-0.30
2022-10-20T01:35:41.096Z,-0.30
2022-10-20T01:38:21.629Z,-0.30
2022-10-20T01:40:54.052Z,-0.40
2022-10-20T01:43:26.556Z,-0.40
2022-10-20T01:45:57.204Z,-0.50
2022-10-20T01:48:29.921Z,-0.50
2022-10-20T01:50:58.172Z,-0.60
2022-10-20T01:53:26.180Z,-0.60
2022-10-20T01:55:56.298Z,-0.60
2022-10-20T01:59:13.982Z,-0.60
2022-10-20T02:02:09.684Z,-0.60
2022-10-20T02:04:53.751Z,-0.60
2022-10-20T02:07:26.829Z,-0.80
2022-10-20T02:10:01.665Z,-0.80
2022-10-20T02:12:33.516Z,-0.80
2022-10-20T02:15:05.567Z,-0.90
2022-10-20T02:17:35.706Z,-0.90
2022-10-20T02:20:07.539Z,-0.90
2022-10-20T02:22:36.589Z,-0.90
2022-10-20T02:25:05.641Z,-0.90
2022-10-20T02:27:37.071Z,-1.00
2022-10-20T02:30:10.832Z,-1.00
2022-10-20T02:32:42.255Z,-1.00
2022-10-20T02:35:14.832Z,-1.00
2022-10-20T02:37:43.058Z,-1.10
2022-10-20T02:40:12.444Z,-1.10
2022-10-20T02:42:41.041Z,-1.20
2022-10-20T02:45:12.177Z,-1.20
2022-10-20T02:47:40.442Z,-1.20
2022-10-20T02:50:09.936Z,-1.20
2022-10-20T02:52:38.386Z,-1.30
2022-10-20T02:55:07.299Z,-1.30
2022-10-20T02:57:35.827Z,-1.30
2022-10-20T03:00:05.560Z,-1.30
2022-10-20T03:02:35.205Z,-1.30
2022-10-20T03:05:03.827Z,-1.30
2022-10-20T03:07:31.856Z,-1.30
2022-10-20T03:09:59.866Z,-1.30
2022-10-20T03:12:30.222Z,-1.20
2022-10-20T03:15:00.502Z,-1.20
2022-10-20T03:17:28.626Z,-1.20
2022-10-20T03:19:58.206Z,-1.10
2022-10-20T03:22:26.282Z,-1.20
2022-10-20T03:24:54.344Z,-1.10
2022-10-20T03:27:22.343Z,-1.20
2022-10-20T03:29:50.441Z,-1.10
2022-10-20T03:32:18.758Z,-1.10
2022-10-20T03:34:47.031Z,-1.10
2022-10-20T03:37:16.419Z,-1.10
2022-10-20T03:39:44.670Z,-1.00
2022-10-20T03:42:12.869Z,-1.00
2022-10-20T03:44:40.943Z,-0.90
2022-10-20T03:47:09.117Z,-0.80
2022-10-20T03:49:37.137Z,-0.80
2022-10-20T03:52:05.479Z,-0.70
2022-10-20T03:54:37.268Z,-0.70
2022-10-20T03:57:07.822Z,-0.60
2022-10-20T03:59:36.089Z,-0.60
2022-10-20T04:02:04.682Z,-0.50
2022-10-20T04:04:32.780Z,-0.50
2022-10-20T04:07:00.822Z,-0.50
2022-10-20T04:09:28.933Z,-0.40
2022-10-20T04:11:58.461Z,-0.30
2022-10-20T04:14:26.547Z,-0.30
2022-10-20T04:16:54.547Z,-0.40
2022-10-20T04:19:22.859Z,-0.40
2022-10-20T04:21:51.136Z,-0.40
2022-10-20T04:24:19.424Z,-0.40
2022-10-20T04:29:20.423Z,-0.50
2022-10-20T04:31:49.295Z,-0.50
2022-10-20T04:34:17.701Z,-0.60
2022-10-20T04:36:45.822Z,-0.60
2022-10-20T04:39:15.131Z,-0.40
2022-10-20T04:41:43.477Z,-0.30
2022-10-20T04:44:11.805Z,-0.20
2022-10-20T04:46:41.158Z,-0.20
2022-10-20T04:49:09.223Z,-0.10
2022-10-20T04:51:37.311Z,-0.10
2022-10-20T04:56:33.520Z,-0.10
2022-10-20T04:59:01.697Z,0.00
2022-10-20T05:01:31.037Z,0.00
2022-10-20T05:04:00.821Z,0.10
2022-10-20T05:06:31.052Z,0.10
2022-10-20T05:09:01.659Z,0.10
2022-10-20T05:11:31.138Z,0.10
2022-10-20T05:13:59.332Z,0.10
2022-10-20T05:16:27.929Z,0.10
2022-10-20T05:18:57.904Z,0.10
2022-10-20T05:21:29.212Z,0.10
2022-10-20T05:23:58.218Z,0.10
2022-10-20T05:26:28.438Z,0.20
2022-10-20T05:28:56.827Z,0.30
2022-10-20T05:31:25.355Z,0.30
2022-10-20T05:33:56.226Z,0.40
2022-10-20T05:36:26.365Z,0.40
2022-10-20T05:38:57.464Z,0.50
2022-10-20T05:41:26.977Z,0.60
2022-10-20T05:43:57.821Z,0.60
2022-10-20T05:46:27.093Z,0.60
2022-10-20T05:48:57.227Z,0.60
2022-10-20T05:51:29.254Z,0.60
2022-10-20T05:53:59.803Z,0.70
2022-10-20T05:56:29.533Z,0.70
2022-10-20T05:58:58.859Z,0.80
2022-10-20T06:01:38.754Z,0.80
2022-10-20T06:04:08.697Z,0.90
2022-10-20T06:06:37.159Z,1.00
2022-10-20T06:09:09.305Z,1.10
2022-10-20T06:11:39.494Z,1.30
2022-10-20T06:14:08.533Z,1.30
2022-10-20T06:16:37.368Z,1.40
2022-10-20T06:19:06.751Z,1.50
2022-10-20T06:21:36.206Z,1.60
2022-10-20T06:24:07.642Z,1.70
2022-10-20T06:26:37.433Z,1.80
2022-10-20T06:29:06.743Z,1.90
2022-10-20T06:31:38.955Z,2.00
2022-10-20T06:34:08.004Z,2.20
2022-10-20T06:36:37.685Z,2.60
2022-10-20T06:39:08.600Z,2.90
2022-10-20T06:41:37.061Z,3.30
2022-10-20T06:44:05.306Z,3.90
2022-10-20T06:46:35.526Z,5.20
2022-10-20T06:49:04.803Z,6.30
2022-10-20T06:51:33.386Z,7.50
2022-10-20T06:54:02.488Z,8.70
2022-10-20T06:56:33.627Z,9.80
2022-10-20T06:59:02.888Z,11.40
2022-10-20T07:01:32.555Z,12.00
2022-10-20T07:04:02.958Z,12.80
2022-10-20T07:06:32.915Z,13.40
2022-10-20T07:09:04.001Z,13.60
2022-10-20T07:11:33.769Z,14.00
2022-10-20T07:14:03.271Z,14.40
2022-10-20T07:16:33.700Z,15.20
2022-10-20T07:19:02.799Z,15.70
2022-10-20T07:21:35.778Z,15.90
2022-10-20T07:24:07.477Z,16.40
2022-10-20T07:26:39.099Z,15.90
2022-10-20T07:29:07.516Z,15.70
2022-10-20T07:31:38.301Z,15.30
2022-10-20T07:34:23.910Z,14.70
2022-10-20T07:36:53.194Z,14.50
2022-10-20T07:39:21.457Z,14.60
2022-10-20T07:41:51.030Z,14.90
2022-10-20T07:44:19.183Z,14.60
2022-10-20T07:46:47.235Z,14.90
2022-10-20T07:52:03.245Z,15.30
2022-10-20T07:54:31.862Z,15.10
2022-10-20T07:57:01.356Z,15.00
2022-10-20T07:59:29.957Z,15.00
2022-10-20T08:01:59.863Z,14.90
2022-10-20T08:04:29.002Z,14.90
2022-10-20T08:06:56.983Z,15.10
2022-10-20T08:09:25.356Z,15.60
2022-10-20T08:11:55.541Z,15.60
2022-10-20T08:14:27.689Z,16.00
2022-10-20T08:16:58.250Z,16.70
2022-10-20T08:22:20.544Z,17.50
2022-10-20T08:24:48.560Z,17.50
2022-10-20T08:27:16.732Z,17.60
2022-10-20T08:29:55.000Z,18.00
2022-10-20T08:32:28.718Z,18.00
2022-10-20T08:34:56.644Z,18.50
2022-10-20T08:37:24.952Z,18.60
2022-10-20T08:39:52.955Z,18.80
2022-10-20T08:42:21.047Z,19.60
2022-10-20T08:44:51.241Z,20.30
2022-10-20T08:47:32.337Z,21.60
2022-10-20T08:50:03.816Z,21.10
2022-10-20T08:52:31.835Z,20.50
2022-10-20T08:55:00.153Z,20.20
2022-10-20T08:57:33.367Z,19.30
2022-10-20T09:00:17.026Z,18.30
2022-10-20T09:02:45.312Z,17.80
2022-10-20T09:05:18.201Z,18.10
2022-10-20T09:07:48.497Z,18.80
2022-10-20T09:10:30.266Z,19.50
2022-10-20T09:12:59.422Z,20.10
2022-10-20T09:15:29.867Z,20.00
2022-10-20T09:18:01.429Z,20.50
2022-10-20T09:20:32.980Z,21.30
2022-10-20T09:23:07.839Z,21.50
2022-10-20T09:25:46.381Z,21.50
2022-10-20T09:28:22.829Z,21.00
2022-10-20T09:30:52.948Z,20.90
2022-10-20T09:33:30.073Z,21.20
2022-10-20T09:36:04.353Z,21.60
2022-10-20T09:38:34.893Z,21.50
2022-10-20T09:41:14.916Z,21.70
2022-10-20T09:43:53.148Z,22.10
2022-10-20T09:46:28.618Z,21.90
2022-10-20T09:48:57.416Z,21.50
2022-10-20T09:51:27.168Z,21.00
2022-10-20T09:53:59.699Z,21.20
2022-10-20T09:56:30.771Z,20.90
2022-10-20T09:59:00.866Z,21.10
2022-10-20T10:01:30.550Z,21.20
2022-10-20T10:04:02.254Z,21.50
2022-10-20T10:06:34.184Z,21.50
2022-10-20T10:09:03.284Z,20.30
2022-10-20T10:11:35.423Z,18.90
2022-10-20T10:14:04.876Z,17.70
2022-10-20T10:16:43.886Z,16.90
2022-10-20T10:19:19.278Z,16.30
2022-10-20T10:21:52.575Z,16.00
2022-10-20T10:24:41.724Z,15.70
2022-10-20T10:27:21.601Z,15.60
2022-10-20T10:29:50.060Z,15.40
2022-10-20T10:32:24.384Z,15.50
2022-10-20T10:35:23.603Z,15.50
2022-10-20T10:37:53.314Z,15.60
2022-10-20T10:40:24.355Z,15.80
2022-10-20T10:43:08.413Z,15.80
2022-10-20T10:45:46.929Z,15.90
2022-10-20T10:48:42.611Z,16.00
2022-10-20T10:51:16.807Z,16.00
2022-10-20T10:53:55.521Z,16.10
2022-10-20T10:56:32.982Z,16.10
2022-10-20T10:59:07.245Z,16.10
2022-10-20T11:02:07.749Z,16.10
2022-10-20T11:05:07.616Z,16.20
2022-10-20T11:07:44.074Z,16.20
2022-10-20T11:10:20.796Z,16.20
2022-10-20T11:13:03.565Z,16.30
2022-10-20T11:15:52.115Z,16.30
2022-10-20T11:18:43.371Z,16.30
2022-10-20T11:21:24.144Z,16.30
2022-10-20T11:24:17.505Z,16.30
2022-10-20T11:26:47.657Z,16.40
2022-10-20T11:29:20.559Z,16.40
2022-10-20T11:31:56.592Z,16.30
2022-10-20T11:34:31.236Z,16.10
2022-10-20T11:37:06.647Z,16.10
2022-10-20T11:39:41.269Z,16.00
2022-10-20T11:42:20.295Z,15.80
2022-10-20T11:44:49.987Z,15.80
2022-10-20T11:47:22.475Z,15.70
2022-10-20T11:49:50.791Z,15.60
2022-10-20T11:52:44.449Z,15.60
2022-10-20T11:55:40.288Z,15.60
2022-10-20T11:58:34.565Z,15.60
2022-10-20T12:01:25.770Z,15.70
2022-10-20T12:04:13.319Z,15.70
2022-10-20T12:07:06.061Z,15.80
2022-10-20T12:10:00.395Z,15.70
2022-10-20T12:12:34.135Z,15.70
2022-10-20T12:15:04.561Z,15.70
2022-10-20T12:17:36.143Z,15.70
2022-10-20T12:20:41.725Z,15.70
2022-10-20T12:23:49.360Z,15.70
2022-10-20T12:27:07.447Z,15.90
2022-10-20T12:29:54.732Z,15.80
2022-10-20T12:32:37.040Z,15.90
2022-10-20T12:35:29.819Z,15.90
2022-10-20T12:38:01.578Z,15.90
2022-10-20T12:40:33.867Z,15.90
2022-10-20T12:43:02.382Z,15.90
2022-10-20T12:45:38.267Z,15.90
2022-10-20T12:48:07.927Z,15.90
2022-10-20T12:50:39.751Z,15.80
2022-10-20T12:53:23.544Z,15.80
2022-10-20T12:55:59.109Z,15.70
2022-10-20T12:58:29.751Z,15.60
2022-10-20T13:01:09.291Z,15.50
2022-10-20T13:03:48.698Z,15.30
2022-10-20T13:06:45.165Z,15.40
2022-10-20T13:09:21.256Z,15.40
2022-10-20T13:11:59.018Z,15.60
2022-10-20T13:14:36.874Z,15.80
2022-10-20T13:17:21.364Z,16.00
2022-10-20T13:20:00.375Z,16.30
2022-10-20T13:22:39.037Z,16.40
2022-10-20T13:25:19.230Z,16.50
2022-10-20T13:27:50.400Z,16.50
2022-10-20T13:30:23.096Z,16.50
2022-10-20T13:33:17.787Z,16.50
2022-10-20T13:35:55.554Z,16.50
2022-10-20T13:38:28.139Z,16.40
2022-10-20T13:41:02.839Z,16.30
2022-10-20T13:43:38.039Z,16.20
2022-10-20T13:46:25.348Z,16.10
2022-10-20T13:49:10.395Z,16.00
2022-10-20T13:51:44.351Z,16.00
2022-10-20T13:54:22.173Z,15.90
2022-10-20T13:56:51.589Z,15.80
2022-10-20T13:59:25.484Z,15.70
2022-10-20T14:01:55.715Z,15.70
2022-10-20T14:04:30.504Z,15.60
2022-10-20T14:07:03.769Z,15.60
2022-10-20T14:09:32.405Z,15.50
2022-10-20T14:12:03.673Z,15.40
2022-10-20T14:14:32.072Z,15.30
2022-10-20T14:17:03.253Z,15.20
2022-10-20T14:19:33.642Z,15.00
2022-10-20T14:22:14.384Z,14.90
2022-10-20T14:24:45.258Z,14.80
2022-10-20T14:27:18.452Z,14.70
2022-10-20T14:29:47.444Z,14.60
2022-10-20T14:32:19.895Z,14.40
2022-10-20T14:35:19.039Z,14.20
2022-10-20T14:37:53.517Z,14.00
2022-10-20T14:40:24.622Z,13.90
2022-10-20T14:42:53.442Z,13.70
2022-10-20T14:45:23.646Z,13.50
2022-10-20T14:47:52.822Z,13.30
2022-10-20T14:50:40.942Z,13.10
2022-10-20T14:53:28.773Z,12.90
2022-10-20T14:55:57.384Z,12.80
2022-10-20T14:58:35.742Z,12.60
2022-10-20T15:01:24.152Z,12.40
2022-10-20T15:04:06.916Z,12.20
2022-10-20T15:06:36.441Z,12.00
2022-10-20T15:09:04.875Z,11.90
2022-10-20T15:11:33.082Z,11.70
2022-10-20T15:14:01.588Z,11.50
2022-10-20T15:16:36.123Z,11.30
2022-10-20T15:19:29.200Z,11.00
2022-10-20T15:22:02.131Z,10.80
2022-10-20T15:24:30.705Z,10.60
2022-10-20T15:26:59.694Z,10.40
2022-10-20T15:29:28.422Z,10.10
2022-10-20T15:31:57.045Z,10.00
2022-10-20T15:34:25.638Z,9.90
2022-10-20T15:36:53.883Z,9.80
2022-10-20T15:39:23.660Z,9.70
2022-10-20T15:41:53.879Z,9.50
2022-10-20T15:44:23.475Z,9.40
2022-10-20T15:46:54.080Z,9.20
2022-10-20T15:49:22.934Z,9.20
2022-10-20T15:51:51.658Z,9.10
2022-10-20T15:54:22.541Z,9.10
2022-10-20T15:56:52.269Z,8.90
2022-10-20T15:59:20.312Z,8.80
2022-10-20T16:01:48.350Z,8.80
2022-10-20T16:04:19.108Z,8.60
2022-10-20T16:06:47.324Z,8.50
2022-10-20T16:09:16.338Z,8.50
2022-10-20T16:11:45.018Z,8.30
2022-10-20T16:14:15.711Z,8.20
2022-10-20T16:16:45.186Z,8.10
2022-10-20T16:19:13.818Z,8.10
2022-10-20T16:21:42.362Z,8.00
2022-10-20T16:24:11.535Z,7.80
2022-10-20T16:26:39.585Z,7.70
2022-10-20T16:29:07.899Z,7.60
2022-10-20T16:31:37.431Z,7.60
2022-10-20T16:34:05.596Z,7.80
2022-10-20T16:36:33.841Z,7.90
2022-10-20T16:39:02.269Z,7.80
2022-10-20T16:41:30.331Z,7.80
2022-10-20T16:44:00.902Z,7.80
2022-10-20T16:46:29.464Z,7.70
2022-10-20T16:48:58.931Z,7.60
2022-10-20T16:51:27.015Z,7.50
2022-10-20T16:53:57.287Z,7.40
2022-10-20T16:56:28.864Z,7.30
2022-10-20T16:58:57.393Z,7.20
2022-10-20T17:01:45.890Z,7.20
2022-10-20T17:04:15.368Z,7.10
2022-10-20T17:06:43.380Z,7.00
2022-10-20T17:09:11.609Z,6.90
2022-10-20T17:11:39.697Z,7.00
2022-10-20T17:14:07.752Z,7.20
2022-10-20T17:16:38.217Z,7.60
2022-10-20T17:19:06.483Z,7.60
2022-10-20T17:21:36.463Z,7.70
2022-10-20T17:24:04.896Z,7.80
2022-10-20T17:26:32.976Z,8.00
2022-10-20T17:29:02.250Z,8.10
2022-10-20T17:31:31.293Z,8.20
2022-10-20T17:34:00.280Z,8.20
2022-10-20T17:36:29.286Z,8.20
2022-10-20T17:39:00.540Z,8.10
2022-10-20T17:41:28.679Z,8.00
2022-10-20T17:43:56.923Z,8.00
2022-10-20T17:46:25.027Z,7.90
2022-10-20T17:48:53.150Z,7.70
2022-10-20T17:51:22.997Z,7.70
2022-10-20T17:53:52.494Z,7.70
2022-10-20T17:56:24.387Z,7.70
2022-10-20T17:58:53.118Z,7.80
2022-10-20T18:01:23.641Z,7.80
2022-10-20T18:03:55.691Z,7.70
2022-10-20T18:06:26.356Z,7.70
2022-10-20T18:08:57.275Z,7.80
2022-10-20T18:11:28.514Z,7.80
2022-10-20T18:13:59.489Z,7.80
2022-10-20T18:16:29.398Z,7.90
2022-10-20T18:21:32.412Z,8.00
2022-10-20T18:24:02.590Z,8.10
2022-10-20T18:26:34.272Z,8.20
2022-10-20T18:29:03.342Z,8.20
2022-10-20T18:31:33.492Z,8.20
2022-10-20T18:34:04.481Z,8.20
2022-10-20T18:36:36.894Z,8.10
2022-10-20T18:39:08.537Z,8.10
2022-10-20T18:41:39.730Z,8.10
2022-10-20T18:44:11.855Z,8.20
2022-10-20T18:46:40.632Z,8.20
2022-10-20T18:49:10.320Z,8.20
2022-10-20T18:51:38.600Z,8.20
2022-10-20T18:54:32.125Z,8.20
2022-10-20T18:57:01.541Z,8.20
2022-10-20T18:59:29.652Z,8.10
2022-10-20T19:01:57.835Z,8.10
2022-10-20T19:04:25.823Z,8.10
2022-10-20T19:06:53.935Z,8.20
2022-10-20T19:09:22.693Z,8.20
2022-10-20T19:11:51.178Z,8.10
2022-10-20T19:14:20.554Z,8.30
2022-10-20T19:16:49.775Z,8.40
2022-10-20T19:19:18.043Z,8.40
2022-10-20T19:21:46.415Z,8.60
2022-10-20T19:24:16.695Z,9.00
2022-10-20T19:26:57.104Z,9.20
2022-10-20T19:29:36.414Z,9.20
2022-10-20T19:32:06.430Z,9.30
2022-10-20T19:34:37.100Z,9.50
2022-10-20T19:37:05.700Z,9.70
2022-10-20T19:39:37.004Z,9.80
2022-10-20T19:42:07.264Z,10.00
2022-10-20T19:44:36.945Z,10.10
2022-10-20T19:47:05.991Z,10.20
2022-10-20T19:49:34.489Z,10.20
2022-10-20T19:52:02.724Z,10.20
2022-10-20T19:54:30.794Z,10.30
2022-10-20T19:56:59.011Z,10.30
2022-10-20T19:59:27.667Z,10.40
2022-10-20T20:01:57.334Z,10.40
2022-10-20T20:04:25.458Z,10.40
2022-10-20T20:06:55.451Z,10.50
2022-10-20T20:09:29.449Z,10.50
2022-10-20T20:11:57.809Z,10.60
2022-10-20T20:14:25.842Z,10.60
2022-10-20T20:16:53.940Z,10.60
2022-10-20T20:19:23.553Z,10.50
2022-10-20T20:21:51.622Z,10.50
2022-10-20T20:24:19.831Z,10.50
2022-10-20T20:26:48.207Z,10.40
2022-10-20T20:29:16.649Z,10.40
2022-10-20T20:31:44.921Z,10.40
2022-10-20T20:34:13.011Z,10.40
2022-10-20T20:36:42.523Z,10.40
2022-10-20T20:39:10.775Z,10.30
2022-10-20T20:41:38.788Z,10.30
2022-10-20T20:44:08.441Z,10.40
2022-10-20T20:46:37.708Z,10.40
2022-10-20T20:49:05.929Z,10.50
2022-10-20T20:51:34.670Z,10.60
2022-10-20T20:54:05.040Z,10.60
2022-10-20T20:56:33.309Z,10.60
2022-10-20T20:59:01.488Z,10.70
2022-10-20T21:01:31.838Z,10.80
2022-10-20T21:04:02.116Z,10.80
2022-10-20T21:06:49.506Z,10.80
2022-10-20T21:09:19.930Z,10.70
2022-10-20T21:11:49.113Z,10.70
2022-10-20T21:14:17.409Z,10.80
2022-10-20T21:16:45.676Z,10.80
2022-10-20T21:19:14.044Z,10.70
2022-10-20T21:21:44.544Z,10.70
2022-10-20T21:24:13.877Z,10.70
2022-10-20T21:26:43.691Z,10.60
2022-10-20T21:29:11.915Z,10.50
2022-10-20T21:31:40.820Z,10.50
2022-10-20T21:34:08.861Z,10.50
2022-10-20T21:36:37.888Z,10.40
2022-10-20T21:39:07.720Z,10.40
2022-10-20T21:41:37.606Z,10.40
2022-10-20T21:44:08.549Z,10.30
2022-10-20T21:46:39.183Z,10.30
2022-10-20T21:49:09.381Z,10.40
2022-10-20T21:51:39.622Z,10.40
2022-10-20T21:54:09.791Z,10.30
2022-10-20T21:56:41.147Z,10.40
2022-10-20T21:59:20.032Z,10.40
2022-10-20T22:01:49.026Z,10.30
2022-10-20T22:04:17.532Z,10.30
2022-10-20T22:06:45.879Z,10.30
2022-10-20T22:09:15.364Z,10.40
2022-10-20T22:11:45.565Z,10.40
2022-10-20T22:14:15.004Z,10.60
2022-10-20T22:16:43.601Z,10.60
2022-10-20T22:19:14.515Z,10.60
2022-10-20T22:21:44.843Z,10.50
2022-10-20T22:24:12.902Z,10.50
2022-10-20T22:26:41.529Z,10.50
2022-10-20T22:29:10.562Z,10.40
2022-10-20T22:31:41.261Z,10.40
2022-10-20T22:34:09.769Z,10.40
2022-10-20T22:36:39.360Z,10.30
2022-10-20T22:39:07.890Z,10.40
2022-10-20T22:41:35.998Z,10.40
2022-10-20T22:44:04.111Z,10.40
2022-10-20T22:46:32.435Z,10.30
2022-10-20T22:49:02.006Z,10.30
2022-10-20T22:51:30.138Z,10.30
2022-10-20T22:53:58.852Z,10.30
2022-10-20T22:56:26.889Z,10.30
2022-10-20T22:58:55.343Z,10.30
2022-10-20T23:01:24.740Z,10.30
2022-10-20T23:03:53.146Z,10.30
2022-10-20T23:06:24.781Z,10.30
2022-10-20T23:08:55.365Z,10.30
2022-10-20T23:11:23.961Z,10.30
2022-10-20T23:13:52.372Z,10.30
2022-10-20T23:16:20.801Z,10.40
2022-10-20T23:18:49.136Z,10.40
2022-10-20T23:21:18.220Z,10.50
2022-10-20T23:23:48.064Z,10.50
2022-10-20T23:26:16.330Z,10.60
2022-10-20T23:28:44.603Z,10.60
2022-10-20T23:31:14.792Z,10.60
2022-10-20T23:33:44.029Z,10.70
2022-10-20T23:36:12.982Z,10.80
2022-10-20T23:38:41.492Z,10.90
2022-10-20T23:41:11.335Z,10.90
2022-10-20T23:43:39.498Z,10.90
2022-10-20T23:46:08.206Z,11.00
2022-10-20T23:48:37.054Z,11.10
2022-10-20T23:51:06.037Z,11.10
2022-10-20T23:53:34.770Z,11.20
2022-10-20T23:56:03.107Z,11.20
2022-10-20T23:58:32.534Z,11.30
